sensor_id;sensor_type;location;lat;lon;timestamp;temperature;humidity
16040;DHT22;8124;48.634;8.120;2022-08-19T00:04:48;23.70;99.90
16040;DHT22;8124;48.634;8.120;2022-08-19T00:09:55;23.60;99.90
16040;DHT22;8124;48.634;8.120;2022-08-19T00:14:58;23.60;99.90
16040;DHT22;8124;48.634;8.120;2022-08-19T00:20:02;23.60;99.90
16040;DHT22;8124;48.634;8.120;2022-08-19T00:25:07;23.50;99.90
16040;DHT22;8124;48.634;8.120;2022-08-19T00:30:11;23.50;99.90
16040;DHT22;8124;48.634;8.120;2022-08-19T00:35:14;23.50;99.90
16040;DHT22;8124;48.634;8.120;2022-08-19T00:40:21;23.50;99.90
16040;DHT22;8124;48.634;8.120;2022-08-19T00:45:29;23.40;99.90
16040;DHT22;8124;48.634;8.120;2022-08-19T00:50:39;23.50;99.90
16040;DHT22;8124;48.634;8.120;2022-08-19T00:55:56;23.50;99.90
16040;DHT22;8124;48.634;8.120;2022-08-19T01:01:00;23.40;99.90
16040;DHT22;8124;48.634;8.120;2022-08-19T01:06:05;23.40;99.90
16040;DHT22;8124;48.634;8.120;2022-08-19T01:11:09;23.40;99.90
16040;DHT22;8124;48.634;8.120;2022-08-19T01:16:13;23.50;99.90
16040;DHT22;8124;48.634;8.120;2022-08-19T01:21:22;23.50;99.90
16040;DHT22;8124;48.634;8.120;2022-08-19T01:26:28;23.40;99.90
16040;DHT22;8124;48.634;8.120;2022-08-19T01:31:33;23.30;99.90
16040;DHT22;8124;48.634;8.120;2022-08-19T01:36:38;23.30;99.90
16040;DHT22;8124;48.634;8.120;2022-08-19T01:41:44;23.30;99.90
16040;DHT22;8124;48.634;8.120;2022-08-19T01:46:48;23.20;99.90
16040;DHT22;8124;48.634;8.120;2022-08-19T01:51:58;23.20;99.90
16040;DHT22;8124;48.634;8.120;2022-08-19T01:57:05;23.20;99.90
16040;DHT22;8124;48.634;8.120;2022-08-19T02:02:09;23.20;99.90
16040;DHT22;8124;48.634;8.120;2022-08-19T02:07:12;23.00;99.90
16040;DHT22;8124;48.634;8.120;2022-08-19T02:12:16;22.80;99.90
16040;DHT22;8124;48.634;8.120;2022-08-19T02:17:19;22.70;99.90
16040;DHT22;8124;48.634;8.120;2022-08-19T02:22:22;22.70;99.90
16040;DHT22;8124;48.634;8.120;2022-08-19T02:27:28;22.60;99.90
16040;DHT22;8124;48.634;8.120;2022-08-19T02:32:31;22.70;99.90
16040;DHT22;8124;48.634;8.120;2022-08-19T02:37:44;22.80;99.90
16040;DHT22;8124;48.634;8.120;2022-08-19T02:43:08;22.90;99.90
16040;DHT22;8124;48.634;8.120;2022-08-19T02:48:11;23.00;99.90
16040;DHT22;8124;48.634;8.120;2022-08-19T02:53:24;23.00;99.90
16040;DHT22;8124;48.634;8.120;2022-08-19T02:58:29;23.00;99.90
16040;DHT22;8124;48.634;8.120;2022-08-19T03:03:33;23.10;99.90
16040;DHT22;8124;48.634;8.120;2022-08-19T03:08:37;23.10;99.90
16040;DHT22;8124;48.634;8.120;2022-08-19T03:13:41;23.10;99.90
16040;DHT22;8124;48.634;8.120;2022-08-19T03:18:45;23.10;99.90
16040;DHT22;8124;48.634;8.120;2022-08-19T03:23:48;23.10;99.90
16040;DHT22;8124;48.634;8.120;2022-08-19T03:28:53;23.10;99.90
16040;DHT22;8124;48.634;8.120;2022-08-19T03:33:59;22.90;99.90
16040;DHT22;8124;48.634;8.120;2022-08-19T03:39:04;23.00;99.90
16040;DHT22;8124;48.634;8.120;2022-08-19T03:44:11;23.00;99.90
16040;DHT22;8124;48.634;8.120;2022-08-19T03:49:20;23.00;99.90
16040;DHT22;8124;48.634;8.120;2022-08-19T03:54:29;23.00;99.90
16040;DHT22;8124;48.634;8.120;2022-08-19T03:59:35;23.00;99.90
16040;DHT22;8124;48.634;8.120;2022-08-19T04:04:42;23.00;99.90
16040;DHT22;8124;48.634;8.120;2022-08-19T04:09:45;23.00;99.90
16040;DHT22;8124;48.634;8.120;2022-08-19T04:14:49;23.00;99.90
16040;DHT22;8124;48.634;8.120;2022-08-19T04:19:52;23.00;99.90
16040;DHT22;8124;48.634;8.120;2022-08-19T04:24:55;23.00;99.90
16040;DHT22;8124;48.634;8.120;2022-08-19T04:30:00;23.00;99.90
16040;DHT22;8124;48.634;8.120;2022-08-19T04:35:03;23.00;99.90
16040;DHT22;8124;48.634;8.120;2022-08-19T04:40:19;23.00;99.90
16040;DHT22;8124;48.634;8.120;2022-08-19T04:45:41;23.00;99.90
16040;DHT22;8124;48.634;8.120;2022-08-19T04:50:45;22.90;99.90
16040;DHT22;8124;48.634;8.120;2022-08-19T04:55:48;23.00;99.90
16040;DHT22;8124;48.634;8.120;2022-08-19T05:00:52;23.00;99.90
16040;DHT22;8124;48.634;8.120;2022-08-19T05:05:56;23.00;99.90
16040;DHT22;8124;48.634;8.120;2022-08-19T05:10:58;23.00;99.90
16040;DHT22;8124;48.634;8.120;2022-08-19T05:16:03;23.00;99.90
16040;DHT22;8124;48.634;8.120;2022-08-19T05:21:07;22.90;99.90
16040;DHT22;8124;48.634;8.120;2022-08-19T05:26:28;22.90;99.90
16040;DHT22;8124;48.634;8.120;2022-08-19T05:31:33;22.90;99.90
16040;DHT22;8124;48.634;8.120;2022-08-19T05:36:43;22.90;99.90
16040;DHT22;8124;48.634;8.120;2022-08-19T05:41:49;22.90;99.90
16040;DHT22;8124;48.634;8.120;2022-08-19T05:46:55;22.90;99.90
16040;DHT22;8124;48.634;8.120;2022-08-19T05:52:02;22.90;99.90
16040;DHT22;8124;48.634;8.120;2022-08-19T05:57:07;22.80;99.90
16040;DHT22;8124;48.634;8.120;2022-08-19T06:02:15;22.80;99.90
16040;DHT22;8124;48.634;8.120;2022-08-19T06:07:18;22.80;99.90
16040;DHT22;8124;48.634;8.120;2022-08-19T06:12:22;22.80;99.90
16040;DHT22;8124;48.634;8.120;2022-08-19T06:17:33;22.80;99.90
16040;DHT22;8124;48.634;8.120;2022-08-19T06:22:38;22.90;99.90
16040;DHT22;8124;48.634;8.120;2022-08-19T06:27:41;22.90;99.90
16040;DHT22;8124;48.634;8.120;2022-08-19T06:33:06;22.90;99.90
16040;DHT22;8124;48.634;8.120;2022-08-19T06:38:09;22.80;99.90
16040;DHT22;8124;48.634;8.120;2022-08-19T06:43:12;22.80;99.90
16040;DHT22;8124;48.634;8.120;2022-08-19T06:48:20;22.80;99.90
16040;DHT22;8124;48.634;8.120;2022-08-19T06:53:26;22.80;99.90
16040;DHT22;8124;48.634;8.120;2022-08-19T06:58:31;22.80;99.90
16040;DHT22;8124;48.634;8.120;2022-08-19T07:03:37;22.90;99.90
16040;DHT22;8124;48.634;8.120;2022-08-19T07:08:41;22.90;99.90
16040;DHT22;8124;48.634;8.120;2022-08-19T07:13:45;23.00;99.90
16040;DHT22;8124;48.634;8.120;2022-08-19T07:18:56;23.00;99.90
16040;DHT22;8124;48.634;8.120;2022-08-19T07:24:00;23.10;99.90
16040;DHT22;8124;48.634;8.120;2022-08-19T07:29:07;23.20;99.90
16040;DHT22;8124;48.634;8.120;2022-08-19T07:34:13;23.20;99.90
16040;DHT22;8124;48.634;8.120;2022-08-19T07:39:21;23.20;99.90
16040;DHT22;8124;48.634;8.120;2022-08-19T07:44:24;23.30;99.90
16040;DHT22;8124;48.634;8.120;2022-08-19T07:49:29;23.20;99.90
16040;DHT22;8124;48.634;8.120;2022-08-19T07:54:35;23.30;99.90
16040;DHT22;8124;48.634;8.120;2022-08-19T07:59:38;23.30;99.90
16040;DHT22;8124;48.634;8.120;2022-08-19T08:04:42;23.40;99.90
16040;DHT22;8124;48.634;8.120;2022-08-19T08:10:04;23.40;99.90
16040;DHT22;8124;48.634;8.120;2022-08-19T08:15:15;23.40;99.90
16040;DHT22;8124;48.634;8.120;2022-08-19T08:20:21;23.40;99.90
16040;DHT22;8124;48.634;8.120;2022-08-19T08:25:26;23.50;99.90
16040;DHT22;8124;48.634;8.120;2022-08-19T08:30:33;23.40;99.90
16040;DHT22;8124;48.634;8.120;2022-08-19T08:35:40;23.60;99.90
16040;DHT22;8124;48.634;8.120;2022-08-19T08:40:46;23.60;99.90
16040;DHT22;8124;48.634;8.120;2022-08-19T08:45:56;23.70;99.90
16040;DHT22;8124;48.634;8.120;2022-08-19T08:51:07;23.70;99.90
16040;DHT22;8124;48.634;8.120;2022-08-19T08:56:11;23.80;99.90
16040;DHT22;8124;48.634;8.120;2022-08-19T09:01:17;23.90;99.90
16040;DHT22;8124;48.634;8.120;2022-08-19T09:06:29;23.90;99.90
16040;DHT22;8124;48.634;8.120;2022-08-19T09:11:44;23.70;99.90
16040;DHT22;8124;48.634;8.120;2022-08-19T09:16:51;24.00;99.90
16040;DHT22;8124;48.634;8.120;2022-08-19T09:21:55;24.10;99.90
16040;DHT22;8124;48.634;8.120;2022-08-19T09:26:58;24.20;99.90
16040;DHT22;8124;48.634;8.120;2022-08-19T09:32:06;24.80;99.90
16040;DHT22;8124;48.634;8.120;2022-08-19T09:37:29;24.80;99.90
16040;DHT22;8124;48.634;8.120;2022-08-19T09:42:34;25.10;99.90
16040;DHT22;8124;48.634;8.120;2022-08-19T09:47:38;24.90;99.90
16040;DHT22;8124;48.634;8.120;2022-08-19T09:52:43;24.80;99.90
16040;DHT22;8124;48.634;8.120;2022-08-19T09:57:59;25.10;99.90
16040;DHT22;8124;48.634;8.120;2022-08-19T10:03:02;25.00;99.90
16040;DHT22;8124;48.634;8.120;2022-08-19T10:08:09;25.30;99.90
16040;DHT22;8124;48.634;8.120;2022-08-19T10:13:16;25.20;99.90
16040;DHT22;8124;48.634;8.120;2022-08-19T10:18:20;25.50;99.90
16040;DHT22;8124;48.634;8.120;2022-08-19T10:23:25;25.10;99.90
16040;DHT22;8124;48.634;8.120;2022-08-19T10:28:35;25.10;99.90
16040;DHT22;8124;48.634;8.120;2022-08-19T10:33:40;25.40;99.90
16040;DHT22;8124;48.634;8.120;2022-08-19T10:39:00;25.50;99.90
16040;DHT22;8124;48.634;8.120;2022-08-19T10:44:05;25.80;99.90
16040;DHT22;8124;48.634;8.120;2022-08-19T10:49:10;25.70;99.90
16040;DHT22;8124;48.634;8.120;2022-08-19T10:54:15;25.90;99.90
16040;DHT22;8124;48.634;8.120;2022-08-19T10:59:34;26.10;99.90
16040;DHT22;8124;48.634;8.120;2022-08-19T11:04:38;26.00;99.90
16040;DHT22;8124;48.634;8.120;2022-08-19T11:09:43;25.80;99.90
16040;DHT22;8124;48.634;8.120;2022-08-19T11:14:48;25.90;99.90
16040;DHT22;8124;48.634;8.120;2022-08-19T11:19:51;25.80;99.90
16040;DHT22;8124;48.634;8.120;2022-08-19T11:24:55;25.90;99.90
16040;DHT22;8124;48.634;8.120;2022-08-19T11:29:58;25.80;99.90
16040;DHT22;8124;48.634;8.120;2022-08-19T11:35:02;26.00;99.90
16040;DHT22;8124;48.634;8.120;2022-08-19T11:53:41;26.10;99.90
16040;DHT22;8124;48.634;8.120;2022-08-19T11:58:45;25.90;99.90
16040;DHT22;8124;48.634;8.120;2022-08-19T12:03:50;26.20;99.90
16040;DHT22;8124;48.634;8.120;2022-08-19T12:08:55;26.30;99.90
16040;DHT22;8124;48.634;8.120;2022-08-19T12:13:58;26.60;99.90
16040;DHT22;8124;48.634;8.120;2022-08-19T12:19:03;26.50;99.90
16040;DHT22;8124;48.634;8.120;2022-08-19T12:24:08;26.70;99.90
16040;DHT22;8124;48.634;8.120;2022-08-19T12:29:11;26.70;99.90
16040;DHT22;8124;48.634;8.120;2022-08-19T12:34:14;26.80;99.90
16040;DHT22;8124;48.634;8.120;2022-08-19T12:39:18;26.90;99.90
16040;DHT22;8124;48.634;8.120;2022-08-19T12:44:22;26.90;99.90
16040;DHT22;8124;48.634;8.120;2022-08-19T12:49:30;27.20;99.90
16040;DHT22;8124;48.634;8.120;2022-08-19T12:54:56;27.30;99.90
16040;DHT22;8124;48.634;8.120;2022-08-19T13:00:03;27.40;99.90
16040;DHT22;8124;48.634;8.120;2022-08-19T13:05:10;27.50;99.90
16040;DHT22;8124;48.634;8.120;2022-08-19T13:10:17;27.70;99.90
16040;DHT22;8124;48.634;8.120;2022-08-19T13:15:27;27.70;99.90
16040;DHT22;8124;48.634;8.120;2022-08-19T13:20:32;27.90;99.90
16040;DHT22;8124;48.634;8.120;2022-08-19T13:25:38;27.90;99.90
16040;DHT22;8124;48.634;8.120;2022-08-19T13:30:41;28.00;99.90
16040;DHT22;8124;48.634;8.120;2022-08-19T13:36:02;27.90;99.90
16040;DHT22;8124;48.634;8.120;2022-08-19T13:41:10;27.70;99.90
16040;DHT22;8124;48.634;8.120;2022-08-19T13:46:15;27.80;99.90
16040;DHT22;8124;48.634;8.120;2022-08-19T13:51:18;27.90;99.90
16040;DHT22;8124;48.634;8.120;2022-08-19T13:56:23;27.80;99.90
16040;DHT22;8124;48.634;8.120;2022-08-19T14:01:27;27.80;99.90
16040;DHT22;8124;48.634;8.120;2022-08-19T14:06:31;28.00;99.90
16040;DHT22;8124;48.634;8.120;2022-08-19T14:11:35;28.00;99.90
16040;DHT22;8124;48.634;8.120;2022-08-19T14:16:38;27.90;99.90
16040;DHT22;8124;48.634;8.120;2022-08-19T14:21:41;28.00;99.90
16040;DHT22;8124;48.634;8.120;2022-08-19T14:26:46;27.90;99.90
16040;DHT22;8124;48.634;8.120;2022-08-19T14:31:49;28.00;99.90
16040;DHT22;8124;48.634;8.120;2022-08-19T14:36:52;27.90;99.90
16040;DHT22;8124;48.634;8.120;2022-08-19T14:41:56;27.90;99.90
16040;DHT22;8124;48.634;8.120;2022-08-19T14:47:01;28.00;99.90
16040;DHT22;8124;48.634;8.120;2022-08-19T14:52:05;28.10;99.90
16040;DHT22;8124;48.634;8.120;2022-08-19T14:57:11;28.20;99.90
16040;DHT22;8124;48.634;8.120;2022-08-19T15:02:14;28.30;99.90
16040;DHT22;8124;48.634;8.120;2022-08-19T15:07:36;28.70;99.90
16040;DHT22;8124;48.634;8.120;2022-08-19T15:12:41;28.70;99.90
16040;DHT22;8124;48.634;8.120;2022-08-19T15:17:44;28.60;99.90
16040;DHT22;8124;48.634;8.120;2022-08-19T15:22:48;28.60;99.90
16040;DHT22;8124;48.634;8.120;2022-08-19T15:27:52;28.30;99.90
16040;DHT22;8124;48.634;8.120;2022-08-19T15:32:57;28.30;99.90
16040;DHT22;8124;48.634;8.120;2022-08-19T15:38:00;28.30;99.90
16040;DHT22;8124;48.634;8.120;2022-08-19T15:43:04;28.30;99.90
16040;DHT22;8124;48.634;8.120;2022-08-19T15:48:07;28.40;99.90
16040;DHT22;8124;48.634;8.120;2022-08-19T15:53:10;28.50;99.90
16040;DHT22;8124;48.634;8.120;2022-08-19T15:58:15;28.50;99.90
16040;DHT22;8124;48.634;8.120;2022-08-19T16:03:35;28.70;99.90
16040;DHT22;8124;48.634;8.120;2022-08-19T16:08:57;28.70;99.90
16040;DHT22;8124;48.634;8.120;2022-08-19T16:14:03;28.60;99.90
16040;DHT22;8124;48.634;8.120;2022-08-19T16:19:09;28.70;99.90
16040;DHT22;8124;48.634;8.120;2022-08-19T16:24:20;28.70;99.90
16040;DHT22;8124;48.634;8.120;2022-08-19T16:29:26;28.70;99.90
16040;DHT22;8124;48.634;8.120;2022-08-19T16:34:40;28.60;99.90
16040;DHT22;8124;48.634;8.120;2022-08-19T16:39:44;28.40;99.90
16040;DHT22;8124;48.634;8.120;2022-08-19T16:44:48;28.50;99.90
16040;DHT22;8124;48.634;8.120;2022-08-19T16:49:51;28.40;99.90
16040;DHT22;8124;48.634;8.120;2022-08-19T16:54:56;28.40;99.60
16040;DHT22;8124;48.634;8.120;2022-08-19T17:00:00;28.70;99.00
16040;DHT22;8124;48.634;8.120;2022-08-19T17:05:09;28.50;97.70
16040;DHT22;8124;48.634;8.120;2022-08-19T17:10:12;28.40;96.60
16040;DHT22;8124;48.634;8.120;2022-08-19T17:15:16;28.50;95.80
16040;DHT22;8124;48.634;8.120;2022-08-19T17:20:19;28.60;95.10
16040;DHT22;8124;48.634;8.120;2022-08-19T17:25:24;28.80;94.50
16040;DHT22;8124;48.634;8.120;2022-08-19T17:30:29;28.70;93.60
16040;DHT22;8124;48.634;8.120;2022-08-19T17:35:33;28.90;93.10
16040;DHT22;8124;48.634;8.120;2022-08-19T17:40:36;29.00;92.50
16040;DHT22;8124;48.634;8.120;2022-08-19T17:46:03;29.10;92.20
16040;DHT22;8124;48.634;8.120;2022-08-19T17:51:13;29.00;91.60
16040;DHT22;8124;48.634;8.120;2022-08-19T17:56:22;28.90;91.00
16040;DHT22;8124;48.634;8.120;2022-08-19T18:01:28;28.80;90.50
16040;DHT22;8124;48.634;8.120;2022-08-19T18:06:55;28.90;90.30
16040;DHT22;8124;48.634;8.120;2022-08-19T18:12:01;28.60;89.50
16040;DHT22;8124;48.634;8.120;2022-08-19T18:17:13;28.40;88.90
16040;DHT22;8124;48.634;8.120;2022-08-19T18:22:55;28.40;89.20
16040;DHT22;8124;48.634;8.120;2022-08-19T18:28:19;28.50;89.40
16040;DHT22;8124;48.634;8.120;2022-08-19T18:33:25;28.30;89.70
16040;DHT22;8124;48.634;8.120;2022-08-19T18:38:28;28.10;89.90
16040;DHT22;8124;48.634;8.120;2022-08-19T18:43:52;28.00;90.30
16040;DHT22;8124;48.634;8.120;2022-08-19T18:49:18;27.70;90.30
16040;DHT22;8124;48.634;8.120;2022-08-19T18:54:23;27.50;90.70
16040;DHT22;8124;48.634;8.120;2022-08-19T18:59:28;27.40;91.70
16040;DHT22;8124;48.634;8.120;2022-08-19T19:04:32;27.20;92.20
16040;DHT22;8124;48.634;8.120;2022-08-19T19:09:38;27.00;93.30
16040;DHT22;8124;48.634;8.120;2022-08-19T19:14:41;27.00;95.10
16040;DHT22;8124;48.634;8.120;2022-08-19T19:19:52;27.00;97.00
16040;DHT22;8124;48.634;8.120;2022-08-19T19:24:57;26.80;98.90
16040;DHT22;8124;48.634;8.120;2022-08-19T19:30:00;26.70;99.90
16040;DHT22;8124;48.634;8.120;2022-08-19T19:35:06;26.70;99.90
16040;DHT22;8124;48.634;8.120;2022-08-19T19:40:10;26.80;99.90
16040;DHT22;8124;48.634;8.120;2022-08-19T19:45:15;26.60;99.90
16040;DHT22;8124;48.634;8.120;2022-08-19T19:50:20;26.50;99.90
16040;DHT22;8124;48.634;8.120;2022-08-19T19:55:25;26.50;99.90
16040;DHT22;8124;48.634;8.120;2022-08-19T20:00:29;26.40;99.90
16040;DHT22;8124;48.634;8.120;2022-08-19T20:05:39;26.10;99.90
16040;DHT22;8124;48.634;8.120;2022-08-19T20:10:42;26.20;99.90
16040;DHT22;8124;48.634;8.120;2022-08-19T20:15:46;26.10;99.90
16040;DHT22;8124;48.634;8.120;2022-08-19T20:20:50;26.10;99.90
16040;DHT22;8124;48.634;8.120;2022-08-19T20:25:54;26.10;99.90
16040;DHT22;8124;48.634;8.120;2022-08-19T20:30:57;26.10;99.90
16040;DHT22;8124;48.634;8.120;2022-08-19T20:36:03;26.00;99.90
16040;DHT22;8124;48.634;8.120;2022-08-19T20:41:07;25.90;99.90
16040;DHT22;8124;48.634;8.120;2022-08-19T20:46:11;25.80;99.90
16040;DHT22;8124;48.634;8.120;2022-08-19T20:51:16;25.80;99.90
16040;DHT22;8124;48.634;8.120;2022-08-19T20:56:19;25.80;99.90
16040;DHT22;8124;48.634;8.120;2022-08-19T21:01:23;25.70;99.90
16040;DHT22;8124;48.634;8.120;2022-08-19T21:06:27;25.80;99.90
16040;DHT22;8124;48.634;8.120;2022-08-19T21:11:30;25.70;99.90
16040;DHT22;8124;48.634;8.120;2022-08-19T21:16:33;25.80;99.90
16040;DHT22;8124;48.634;8.120;2022-08-19T21:21:37;25.70;99.90
16040;DHT22;8124;48.634;8.120;2022-08-19T21:26:40;25.50;99.90
16040;DHT22;8124;48.634;8.120;2022-08-19T21:31:43;25.50;99.90
16040;DHT22;8124;48.634;8.120;2022-08-19T21:36:47;25.50;99.90
16040;DHT22;8124;48.634;8.120;2022-08-19T21:41:50;25.50;99.90
16040;DHT22;8124;48.634;8.120;2022-08-19T21:46:54;25.30;99.90
16040;DHT22;8124;48.634;8.120;2022-08-19T21:51:59;25.30;99.90
16040;DHT22;8124;48.634;8.120;2022-08-19T21:57:02;25.30;99.90
16040;DHT22;8124;48.634;8.120;2022-08-19T22:02:11;25.20;99.90
16040;DHT22;8124;48.634;8.120;2022-08-19T22:07:24;25.20;99.90
16040;DHT22;8124;48.634;8.120;2022-08-19T22:12:29;25.20;99.90
16040;DHT22;8124;48.634;8.120;2022-08-19T22:17:32;25.10;99.90
16040;DHT22;8124;48.634;8.120;2022-08-19T22:22:38;25.10;99.90
16040;DHT22;8124;48.634;8.120;2022-08-19T22:27:46;24.90;99.90
16040;DHT22;8124;48.634;8.120;2022-08-19T22:32:52;24.80;99.90
16040;DHT22;8124;48.634;8.120;2022-08-19T22:37:58;24.90;99.90
16040;DHT22;8124;48.634;8.120;2022-08-19T22:43:04;24.90;99.90
16040;DHT22;8124;48.634;8.120;2022-08-19T22:48:10;24.80;99.90
16040;DHT22;8124;48.634;8.120;2022-08-19T22:53:14;24.80;99.90
16040;DHT22;8124;48.634;8.120;2022-08-19T22:58:17;24.70;99.90
16040;DHT22;8124;48.634;8.120;2022-08-19T23:03:28;24.90;99.90
16040;DHT22;8124;48.634;8.120;2022-08-19T23:08:33;24.70;99.90
16040;DHT22;8124;48.634;8.120;2022-08-19T23:13:40;24.80;99.90
16040;DHT22;8124;48.634;8.120;2022-08-19T23:18:43;24.80;99.90
16040;DHT22;8124;48.634;8.120;2022-08-19T23:23:48;24.80;99.90
16040;DHT22;8124;48.634;8.120;2022-08-19T23:28:51;24.60;99.90
16040;DHT22;8124;48.634;8.120;2022-08-19T23:34:12;24.50;99.90
16040;DHT22;8124;48.634;8.120;2022-08-19T23:39:16;24.60;99.90
16040;DHT22;8124;48.634;8.120;2022-08-19T23:44:19;24.60;99.90
16040;DHT22;8124;48.634;8.120;2022-08-19T23:49:24;24.60;99.90
16040;DHT22;8124;48.634;8.120;2022-08-19T23:54:28;24.60;99.90
16040;DHT22;8124;48.634;8.120;2022-08-19T23:59:44;24.60;99.90
